createdAt,value
2023-04-26T00:01:25.054Z,46.70
2023-04-26T00:03:51.694Z,46.50
2023-04-26T00:06:18.320Z,46.70
2023-04-26T00:08:44.790Z,46.70
2023-04-26T00:11:11.262Z,46.60
2023-04-26T00:13:37.763Z,46.60
2023-04-26T00:16:04.302Z,46.30
2023-04-26T00:18:30.803Z,46.50
2023-04-26T00:20:57.300Z,46.70
2023-04-26T00:23:23.807Z,46.70
2023-04-26T00:25:50.291Z,46.50
2023-04-26T00:28:16.795Z,46.50
2023-04-26T00:30:43.254Z,46.60
2023-04-26T00:33:09.767Z,46.70
2023-04-26T00:35:36.263Z,46.70
2023-04-26T00:38:02.760Z,46.70
2023-04-26T00:40:29.236Z,46.60
2023-04-26T00:42:55.689Z,46.50
2023-04-26T00:45:22.149Z,46.70
2023-04-26T00:47:48.655Z,46.70
2023-04-26T00:50:15.170Z,47.20
2023-04-26T00:52:41.654Z,46.60
2023-04-26T00:55:08.146Z,46.50
2023-04-26T00:57:34.635Z,46.50
2023-04-26T01:00:01.127Z,46.60
2023-04-26T01:02:27.710Z,46.60
2023-04-26T01:04:54.285Z,46.40
2023-04-26T01:07:20.765Z,46.70
2023-04-26T01:09:47.242Z,46.50
2023-04-26T01:12:13.696Z,46.50
2023-04-26T01:14:40.169Z,46.50
2023-04-26T01:17:06.704Z,46.50
2023-04-26T01:19:33.273Z,46.50
2023-04-26T01:21:59.743Z,46.60
2023-04-26T01:24:26.211Z,46.60
2023-04-26T01:26:52.685Z,46.50
2023-04-26T01:29:19.158Z,46.70
2023-04-26T01:31:45.624Z,46.70
2023-04-26T01:34:12.164Z,46.60
2023-04-26T01:36:38.638Z,46.50
2023-04-26T01:39:05.172Z,46.30
2023-04-26T01:41:31.655Z,47.30
2023-04-26T01:43:58.158Z,46.80
2023-04-26T01:46:24.680Z,46.70
2023-04-26T01:48:51.506Z,46.70
2023-04-26T01:51:18.097Z,46.70
2023-04-26T01:53:44.581Z,46.80
2023-04-26T01:56:11.067Z,46.70
2023-04-26T01:58:37.546Z,46.60
2023-04-26T02:01:04.024Z,47.10
2023-04-26T02:03:30.538Z,46.40
2023-04-26T02:05:57.052Z,46.50
2023-04-26T02:08:23.528Z,46.40
2023-04-26T02:10:50.001Z,46.30
2023-04-26T02:13:16.472Z,46.30
2023-04-26T02:15:42.978Z,46.50
2023-04-26T02:18:09.569Z,46.40
2023-04-26T02:20:36.081Z,46.20
2023-04-26T02:23:02.546Z,46.20
2023-04-26T02:25:29.037Z,46.40
2023-04-26T02:27:55.517Z,46.70
2023-04-26T02:30:22.002Z,46.70
2023-04-26T02:32:48.526Z,46.70
2023-04-26T02:35:14.996Z,46.50
2023-04-26T02:37:41.475Z,46.50
2023-04-26T02:40:07.954Z,46.50
2023-04-26T02:42:34.438Z,46.40
2023-04-26T02:45:00.941Z,46.50
2023-04-26T02:47:27.466Z,46.40
2023-04-26T02:49:53.972Z,46.40
2023-04-26T02:52:20.462Z,46.30
2023-04-26T02:54:46.912Z,46.50
2023-04-26T02:57:13.382Z,46.60
2023-04-26T02:59:39.848Z,46.50
2023-04-26T03:02:06.335Z,46.60
2023-04-26T03:04:32.913Z,46.40
2023-04-26T03:06:59.391Z,46.40
2023-04-26T03:09:25.878Z,46.30
2023-04-26T03:11:52.371Z,46.40
2023-04-26T03:14:18.886Z,46.40
2023-04-26T03:16:45.392Z,46.70
2023-04-26T03:19:11.884Z,46.70
2023-04-26T03:21:38.377Z,46.70
2023-04-26T03:24:04.836Z,46.60
2023-04-26T03:26:31.312Z,46.60
2023-04-26T03:28:57.765Z,46.40
2023-04-26T03:31:24.382Z,46.40
2023-04-26T03:33:50.874Z,46.30
2023-04-26T03:36:17.358Z,46.10
2023-04-26T03:38:43.849Z,46.30
2023-04-26T03:41:10.327Z,46.30
2023-04-26T03:43:36.822Z,46.40
2023-04-26T03:46:03.306Z,46.50
2023-04-26T03:48:29.793Z,46.50
2023-04-26T03:50:56.272Z,46.50
2023-04-26T03:53:22.756Z,46.50
2023-04-26T03:55:49.224Z,46.50
2023-04-26T03:58:15.702Z,46.10
2023-04-26T04:00:42.187Z,46.30
2023-04-26T04:03:08.875Z,46.30
2023-04-26T04:05:35.503Z,46.20
2023-04-26T04:08:02.056Z,46.30
2023-04-26T04:10:30.741Z,46.10
2023-04-26T04:12:57.225Z,46.10
2023-04-26T04:15:23.710Z,46.20
2023-04-26T04:17:50.213Z,46.30
2023-04-26T04:20:16.710Z,46.40
2023-04-26T04:22:43.185Z,46.50
2023-04-26T04:25:09.648Z,46.50
2023-04-26T04:27:36.117Z,46.50
2023-04-26T04:30:02.594Z,46.20
2023-04-26T04:32:29.081Z,46.20
2023-04-26T04:34:55.577Z,46.40
2023-04-26T04:37:22.039Z,46.60
2023-04-26T04:39:48.531Z,46.50
2023-04-26T04:42:15.012Z,46.50
2023-04-26T04:44:41.478Z,46.30
2023-04-26T04:47:07.965Z,46.40
2023-04-26T04:49:34.441Z,46.20
2023-04-26T04:52:00.922Z,46.40
2023-04-26T04:54:27.416Z,46.50
2023-04-26T04:56:54.780Z,46.50
2023-04-26T04:59:21.252Z,46.10
2023-04-26T05:01:47.792Z,46.00
2023-04-26T05:04:14.564Z,46.10
2023-04-26T05:06:41.159Z,46.10
2023-04-26T05:09:07.621Z,46.10
2023-04-26T05:11:34.084Z,46.00
2023-04-26T05:14:00.538Z,45.90
2023-04-26T05:16:27.063Z,46.10
2023-04-26T05:18:53.628Z,45.90
2023-04-26T05:21:20.106Z,45.80
2023-04-26T05:23:46.588Z,45.90
2023-04-26T05:26:13.076Z,45.90
2023-04-26T05:28:39.542Z,45.70
2023-04-26T05:31:06.020Z,45.70
2023-04-26T05:33:32.493Z,45.60
2023-04-26T05:35:58.961Z,45.80
2023-04-26T05:38:25.427Z,46.20
2023-04-26T05:40:51.927Z,46.10
2023-04-26T05:43:18.420Z,46.00
2023-04-26T05:45:44.920Z,45.90
2023-04-26T05:48:11.420Z,45.80
2023-04-26T05:50:39.596Z,45.90
2023-04-26T05:53:06.564Z,46.00
2023-04-26T05:55:33.040Z,46.40
2023-04-26T05:57:59.506Z,46.40
2023-04-26T06:00:25.982Z,46.30
2023-04-26T06:02:52.569Z,46.30
2023-04-26T06:05:19.300Z,46.20
2023-04-26T06:07:45.807Z,46.40
2023-04-26T06:10:12.262Z,46.40
2023-04-26T06:12:39.192Z,46.40
2023-04-26T06:15:05.677Z,46.60
2023-04-26T06:17:32.171Z,46.50
2023-04-26T06:19:58.639Z,46.30
2023-04-26T06:22:25.122Z,46.40
2023-04-26T06:24:51.620Z,46.30
2023-04-26T06:27:18.105Z,46.30
2023-04-26T06:29:44.575Z,46.50
2023-04-26T06:32:11.048Z,46.50
2023-04-26T06:34:37.511Z,46.60
2023-04-26T06:37:03.988Z,46.70
2023-04-26T06:39:30.463Z,46.50
2023-04-26T06:41:56.932Z,46.70
2023-04-26T06:44:23.452Z,46.50
2023-04-26T06:46:49.928Z,46.80
2023-04-26T06:49:16.402Z,46.80
2023-04-26T06:51:42.897Z,46.80
2023-04-26T06:54:09.389Z,46.70
2023-04-26T06:56:35.868Z,46.90
2023-04-26T06:59:02.366Z,47.00
2023-04-26T07:01:28.879Z,46.90
2023-04-26T07:04:01.051Z,46.90
2023-04-26T07:06:27.579Z,46.70
2023-04-26T07:08:54.465Z,46.90
2023-04-26T07:11:21.993Z,46.90
2023-04-26T07:13:49.278Z,46.80
2023-04-26T07:16:15.843Z,47.00
2023-04-26T07:18:42.342Z,47.40
2023-04-26T07:21:08.830Z,47.00
2023-04-26T07:23:35.334Z,47.00
2023-04-26T07:26:01.845Z,46.80
2023-04-26T07:28:28.336Z,47.30
2023-04-26T07:30:54.788Z,47.30
2023-04-26T07:33:21.380Z,47.10
2023-04-26T07:35:48.046Z,46.70
2023-04-26T07:38:14.540Z,47.10
2023-04-26T07:40:41.016Z,47.50
2023-04-26T07:43:07.493Z,47.40
2023-04-26T07:45:34.023Z,47.60
2023-04-26T07:48:00.579Z,47.40
2023-04-26T07:50:27.073Z,47.40
2023-04-26T07:52:53.575Z,47.50
2023-04-26T07:55:20.053Z,47.40
2023-04-26T07:57:46.528Z,47.20
2023-04-26T08:00:12.989Z,47.20
2023-04-26T08:02:45.286Z,47.30
2023-04-26T08:05:12.310Z,47.40
2023-04-26T08:07:38.969Z,47.60
2023-04-26T08:10:05.450Z,47.50
2023-04-26T08:12:31.928Z,47.30
2023-04-26T08:14:58.385Z,47.40
2023-04-26T08:17:24.898Z,47.20
2023-04-26T08:19:51.386Z,47.30
2023-04-26T08:22:17.891Z,47.50
2023-04-26T08:24:44.364Z,47.70
2023-04-26T08:27:10.845Z,47.50
2023-04-26T08:29:37.332Z,47.50
2023-04-26T08:32:03.805Z,47.20
2023-04-26T08:34:30.279Z,47.50
2023-04-26T08:36:56.771Z,47.50
2023-04-26T08:39:23.274Z,47.70
2023-04-26T08:41:49.738Z,47.50
2023-04-26T08:44:16.229Z,47.30
2023-04-26T08:46:42.787Z,47.40
2023-04-26T08:49:09.313Z,47.70
2023-04-26T08:51:35.788Z,47.40
2023-04-26T08:54:04.145Z,47.00
2023-04-26T08:56:31.359Z,47.10
2023-04-26T08:58:57.845Z,47.50
2023-04-26T09:01:24.347Z,47.70
2023-04-26T09:03:51.279Z,47.30
2023-04-26T09:06:18.186Z,47.50
2023-04-26T09:08:44.682Z,47.30
2023-04-26T09:11:11.158Z,47.70
2023-04-26T09:13:37.695Z,47.60
2023-04-26T09:16:05.288Z,47.50
2023-04-26T09:18:31.893Z,47.50
2023-04-26T09:20:58.374Z,47.30
2023-04-26T09:23:24.872Z,46.80
2023-04-26T09:25:51.341Z,46.90
2023-04-26T09:28:17.836Z,47.50
2023-04-26T09:30:44.308Z,47.50
2023-04-26T09:33:10.844Z,47.00
2023-04-26T09:35:37.313Z,46.80
2023-04-26T09:38:09.710Z,46.90
2023-04-26T09:40:38.965Z,46.70
2023-04-26T09:43:05.448Z,47.20
2023-04-26T09:45:31.925Z,46.60
2023-04-26T09:47:58.441Z,47.10
2023-04-26T09:50:24.987Z,47.30
2023-04-26T09:52:51.478Z,46.80
2023-04-26T09:55:31.033Z,47.00
2023-04-26T09:58:00.951Z,47.10
2023-04-26T10:00:27.429Z,46.70
2023-04-26T10:02:53.952Z,47.10
2023-04-26T10:05:20.449Z,46.80
2023-04-26T10:07:46.906Z,47.00
2023-04-26T10:10:13.395Z,46.30
2023-04-26T10:12:39.856Z,46.50
2023-04-26T10:15:06.336Z,46.90
2023-04-26T10:17:32.849Z,46.50
2023-04-26T10:19:59.358Z,46.60
2023-04-26T10:22:25.857Z,46.70
2023-04-26T10:24:52.359Z,46.50
2023-04-26T10:27:18.840Z,46.40
2023-04-26T10:29:45.343Z,46.00
2023-04-26T10:32:12.224Z,46.50
2023-04-26T10:34:38.902Z,46.50
2023-04-26T10:37:05.378Z,46.50
2023-04-26T10:39:32.948Z,46.30
2023-04-26T10:41:59.413Z,46.40
2023-04-26T10:44:25.896Z,46.30
2023-04-26T10:46:52.369Z,46.20
2023-04-26T10:49:18.873Z,46.50
2023-04-26T10:51:45.343Z,46.00
2023-04-26T10:54:11.823Z,46.50
2023-04-26T10:56:38.332Z,46.70
2023-04-26T10:59:08.476Z,46.00
2023-04-26T11:01:44.458Z,46.00
2023-04-26T11:04:13.185Z,46.10
2023-04-26T11:06:39.752Z,46.10
2023-04-26T11:09:06.243Z,46.10
2023-04-26T11:11:32.750Z,46.40
2023-04-26T11:13:59.238Z,46.40
2023-04-26T11:16:31.319Z,46.30
2023-04-26T11:18:57.848Z,46.90
2023-04-26T11:21:24.304Z,45.20
2023-04-26T11:23:50.775Z,46.20
2023-04-26T11:26:17.261Z,46.20
2023-04-26T11:28:43.754Z,46.40
2023-04-26T11:31:10.291Z,46.00
2023-04-26T11:33:37.064Z,46.20
2023-04-26T11:36:03.542Z,46.20
2023-04-26T11:38:30.033Z,45.80
2023-04-26T11:40:56.544Z,45.80
2023-04-26T11:43:23.045Z,46.20
2023-04-26T11:45:55.127Z,46.20
2023-04-26T11:48:21.721Z,46.20
2023-04-26T11:50:48.253Z,46.10
2023-04-26T11:53:19.240Z,46.20
2023-04-26T11:55:45.683Z,45.60
2023-04-26T11:58:12.165Z,46.10
2023-04-26T12:00:38.649Z,45.70
2023-04-26T12:03:05.413Z,46.00
2023-04-26T12:05:32.331Z,46.20
2023-04-26T12:07:58.935Z,46.20
2023-04-26T12:10:25.417Z,46.30
2023-04-26T12:12:51.885Z,46.10
2023-04-26T12:15:18.381Z,45.80
2023-04-26T12:17:44.872Z,46.00
2023-04-26T12:20:11.481Z,46.20
2023-04-26T12:22:43.344Z,45.50
2023-04-26T12:25:09.835Z,45.60
2023-04-26T12:27:36.302Z,45.90
2023-04-26T12:30:02.839Z,45.60
2023-04-26T12:32:29.344Z,45.50
2023-04-26T12:35:01.166Z,45.70
2023-04-26T12:37:27.640Z,46.10
2023-04-26T12:39:55.171Z,45.90
2023-04-26T12:42:21.733Z,45.60
2023-04-26T12:44:48.229Z,45.60
2023-04-26T12:47:14.695Z,45.50
2023-04-26T12:49:43.164Z,45.00
2023-04-26T12:52:09.649Z,45.30
2023-04-26T12:54:36.142Z,45.00
2023-04-26T12:57:02.627Z,44.90
2023-04-26T12:59:29.113Z,45.10
2023-04-26T13:01:55.680Z,45.60
2023-04-26T13:04:22.341Z,45.40
2023-04-26T13:06:48.981Z,45.50
2023-04-26T13:09:15.445Z,45.70
2023-04-26T13:11:41.919Z,45.70
2023-04-26T13:14:08.406Z,45.90
2023-04-26T13:16:34.900Z,45.60
2023-04-26T13:19:01.459Z,45.80
2023-04-26T13:21:28.004Z,45.60
2023-04-26T13:23:54.486Z,45.50
2023-04-26T13:26:20.953Z,45.60
2023-04-26T13:28:47.435Z,45.70
2023-04-26T13:31:13.964Z,45.60
2023-04-26T13:33:40.472Z,45.60
2023-04-26T13:36:06.947Z,45.20
2023-04-26T13:38:33.412Z,44.70
2023-04-26T13:40:59.916Z,45.20
2023-04-26T13:43:26.388Z,45.00
2023-04-26T13:45:53.001Z,45.00
2023-04-26T13:48:19.534Z,45.30
2023-04-26T13:50:46.000Z,45.60
2023-04-26T13:53:12.485Z,45.20
2023-04-26T13:55:38.964Z,45.60
2023-04-26T13:58:05.428Z,44.60
2023-04-26T14:00:31.892Z,44.90
2023-04-26T14:02:58.467Z,44.90
2023-04-26T14:05:25.227Z,45.50
2023-04-26T14:07:54.248Z,45.60
2023-04-26T14:10:21.545Z,46.20
2023-04-26T14:12:48.046Z,45.30
2023-04-26T14:15:14.518Z,44.90
2023-04-26T14:17:41.033Z,45.30
2023-04-26T14:20:07.547Z,45.60
2023-04-26T14:22:34.044Z,45.50
2023-04-26T14:25:00.529Z,45.40
2023-04-26T14:27:27.001Z,45.10
2023-04-26T14:29:53.452Z,45.10
2023-04-26T14:32:19.946Z,45.70
2023-04-26T14:34:46.443Z,45.90
2023-04-26T14:37:12.944Z,46.00
2023-04-26T14:39:39.407Z,45.60
2023-04-26T14:42:05.917Z,45.60
2023-04-26T14:44:32.397Z,46.00
2023-04-26T14:46:58.871Z,45.60
2023-04-26T14:49:25.358Z,45.30
2023-04-26T14:51:53.375Z,45.20
2023-04-26T14:54:20.358Z,45.20
2023-04-26T14:56:46.844Z,45.30
2023-04-26T14:59:13.342Z,45.40
2023-04-26T15:01:39.879Z,45.70
2023-04-26T15:04:06.599Z,45.90
2023-04-26T15:06:33.239Z,46.20
2023-04-26T15:08:59.725Z,46.10
2023-04-26T15:11:26.199Z,45.70
2023-04-26T15:13:52.676Z,45.20
2023-04-26T15:16:19.183Z,46.20
2023-04-26T15:18:45.735Z,44.40
2023-04-26T15:21:12.186Z,44.40
2023-04-26T15:23:38.670Z,44.10
2023-04-26T15:26:05.144Z,44.70
2023-04-26T15:28:31.610Z,44.80
2023-04-26T15:30:58.086Z,45.20
2023-04-26T15:33:24.570Z,45.30
2023-04-26T15:35:51.043Z,44.70
2023-04-26T15:38:17.508Z,45.10
2023-04-26T15:40:43.974Z,45.10
2023-04-26T15:43:10.435Z,45.00
2023-04-26T15:45:36.903Z,45.00
2023-04-26T15:48:03.481Z,44.90
2023-04-26T15:50:29.996Z,45.10
2023-04-26T15:52:56.495Z,44.70
2023-04-26T15:55:22.969Z,44.40
2023-04-26T15:57:49.477Z,45.10
2023-04-26T16:00:15.964Z,45.00
2023-04-26T16:02:42.543Z,45.00
2023-04-26T16:05:09.265Z,45.30
2023-04-26T16:07:35.801Z,45.20
2023-04-26T16:10:02.330Z,44.70
2023-04-26T16:12:28.850Z,45.00
2023-04-26T16:14:55.340Z,44.50
2023-04-26T16:17:21.807Z,44.90
2023-04-26T16:19:48.273Z,44.70
2023-04-26T16:22:19.524Z,45.00
2023-04-26T16:24:46.033Z,45.00
2023-04-26T16:27:12.499Z,44.30
2023-04-26T16:29:39.207Z,44.70
2023-04-26T16:32:05.704Z,44.60
2023-04-26T16:34:32.196Z,45.00
2023-04-26T16:36:58.681Z,44.50
2023-04-26T16:39:25.192Z,44.50
2023-04-26T16:41:55.397Z,44.40
2023-04-26T16:44:21.900Z,45.00
2023-04-26T16:46:48.382Z,44.80
2023-04-26T16:49:14.891Z,44.50
2023-04-26T16:51:41.458Z,44.90
2023-04-26T16:54:07.952Z,45.20
2023-04-26T16:56:34.424Z,44.90
2023-04-26T16:59:00.970Z,44.90
2023-04-26T17:01:27.543Z,44.80
2023-04-26T17:03:54.465Z,44.60
2023-04-26T17:06:21.190Z,44.90
2023-04-26T17:08:47.705Z,45.00
2023-04-26T17:11:14.166Z,45.00
2023-04-26T17:13:40.657Z,45.10
2023-04-26T17:16:07.186Z,45.10
2023-04-26T17:18:33.680Z,44.30
2023-04-26T17:21:00.154Z,45.00
2023-04-26T17:23:26.619Z,45.30
2023-04-26T17:25:55.154Z,45.10
2023-04-26T17:28:21.945Z,45.30
2023-04-26T17:30:48.426Z,45.10
2023-04-26T17:33:14.893Z,45.30
2023-04-26T17:35:41.348Z,45.30
2023-04-26T17:38:07.821Z,45.30
2023-04-26T17:40:34.306Z,45.20
2023-04-26T17:43:00.791Z,45.30
2023-04-26T17:45:27.263Z,45.30
2023-04-26T17:47:53.783Z,45.00
2023-04-26T17:50:20.270Z,45.30
2023-04-26T17:52:46.773Z,45.00
2023-04-26T17:55:13.234Z,45.20
2023-04-26T17:57:39.699Z,45.00
2023-04-26T18:00:06.183Z,45.00
2023-04-26T18:02:32.778Z,45.30
2023-04-26T18:04:59.454Z,44.90
2023-04-26T18:07:25.926Z,45.10
2023-04-26T18:09:52.410Z,45.00
2023-04-26T18:12:18.881Z,44.80
2023-04-26T18:14:45.370Z,45.10
2023-04-26T18:17:11.926Z,45.00
2023-04-26T18:19:38.503Z,45.00
2023-04-26T18:22:05.038Z,44.90
2023-04-26T18:24:31.508Z,45.20
2023-04-26T18:26:57.991Z,45.00
2023-04-26T18:29:24.476Z,44.70
2023-04-26T18:31:50.982Z,45.30
2023-04-26T18:34:17.456Z,45.20
2023-04-26T18:36:43.932Z,45.00
2023-04-26T18:39:10.416Z,45.00
2023-04-26T18:41:36.919Z,44.90
2023-04-26T18:44:03.390Z,45.10
2023-04-26T18:46:29.974Z,45.10
2023-04-26T18:48:56.486Z,45.10
2023-04-26T18:51:22.978Z,45.10
2023-04-26T18:53:49.450Z,44.70
2023-04-26T18:56:15.931Z,45.00
2023-04-26T18:58:42.405Z,45.10
2023-04-26T19:01:09.004Z,45.10
2023-04-26T19:03:35.692Z,45.10
2023-04-26T19:06:02.305Z,45.10
2023-04-26T19:08:28.786Z,45.10
2023-04-26T19:10:55.263Z,45.00
2023-04-26T19:13:22.038Z,45.00
2023-04-26T19:15:48.737Z,45.20
2023-04-26T19:18:15.395Z,45.10
2023-04-26T19:20:41.934Z,45.00
2023-04-26T19:23:08.421Z,45.10
2023-04-26T19:25:34.909Z,45.30
2023-04-26T19:28:01.388Z,45.40
2023-04-26T19:30:27.889Z,45.40
2023-04-26T19:32:54.442Z,45.20
2023-04-26T19:35:21.019Z,45.40
2023-04-26T19:37:47.502Z,45.10
2023-04-26T19:40:14.008Z,45.30
2023-04-26T19:42:43.512Z,45.20
2023-04-26T19:45:09.987Z,45.00
2023-04-26T19:47:36.476Z,45.20
2023-04-26T19:50:02.967Z,45.20
2023-04-26T19:52:29.453Z,45.30
2023-04-26T19:54:55.925Z,46.10
2023-04-26T19:57:25.540Z,45.30
2023-04-26T19:59:52.222Z,45.20
2023-04-26T20:02:18.830Z,45.20
2023-04-26T20:04:45.374Z,45.50
2023-04-26T20:07:11.853Z,45.40
2023-04-26T20:09:38.324Z,45.30
2023-04-26T20:12:04.826Z,45.30
2023-04-26T20:14:31.314Z,45.20
2023-04-26T20:16:57.926Z,45.40
2023-04-26T20:19:24.517Z,45.50
2023-04-26T20:21:50.999Z,45.40
2023-04-26T20:24:17.484Z,45.40
2023-04-26T20:26:44.040Z,45.30
2023-04-26T20:29:10.542Z,45.50
2023-04-26T20:31:37.057Z,45.50
2023-04-26T20:34:03.578Z,45.50
2023-04-26T20:36:30.035Z,45.50
2023-04-26T20:38:56.491Z,45.50
2023-04-26T20:41:22.981Z,45.60
2023-04-26T20:43:49.446Z,45.50
2023-04-26T20:46:15.955Z,45.60
2023-04-26T20:48:42.453Z,45.50
2023-04-26T20:51:08.932Z,45.60
2023-04-26T20:53:35.414Z,45.50
2023-04-26T20:56:01.898Z,45.60
2023-04-26T20:58:28.370Z,45.60
2023-04-26T21:00:54.874Z,45.70
2023-04-26T21:03:21.525Z,45.60
2023-04-26T21:05:48.148Z,45.60
2023-04-26T21:08:14.636Z,45.60
2023-04-26T21:10:41.137Z,45.60
2023-04-26T21:13:07.608Z,45.60
2023-04-26T21:15:34.149Z,45.70
2023-04-26T21:18:00.655Z,45.70
2023-04-26T21:20:27.186Z,45.70
2023-04-26T21:22:53.694Z,45.70
2023-04-26T21:25:20.156Z,45.70
2023-04-26T21:27:46.610Z,45.70
2023-04-26T21:30:13.077Z,45.80
2023-04-26T21:32:39.590Z,45.80
2023-04-26T21:35:06.076Z,45.70
2023-04-26T21:37:32.548Z,45.70
2023-04-26T21:39:59.010Z,45.70
2023-04-26T21:42:25.498Z,45.70
2023-04-26T21:44:51.963Z,45.70
2023-04-26T21:47:18.458Z,45.80
2023-04-26T21:49:44.942Z,45.90
2023-04-26T21:52:11.455Z,46.00
2023-04-26T21:54:37.936Z,46.00
2023-04-26T21:57:04.430Z,45.90
2023-04-26T21:59:30.897Z,46.00
2023-04-26T22:01:57.461Z,46.00
2023-04-26T22:04:24.204Z,45.90
2023-04-26T22:06:50.736Z,45.90
2023-04-26T22:09:17.213Z,45.80
2023-04-26T22:11:43.709Z,45.90
2023-04-26T22:14:10.190Z,46.00
2023-04-26T22:16:36.748Z,45.90
2023-04-26T22:19:03.250Z,46.00
2023-04-26T22:21:29.751Z,45.90
2023-04-26T22:23:56.233Z,46.10
2023-04-26T22:26:22.741Z,46.10
2023-04-26T22:28:49.211Z,46.10
2023-04-26T22:31:15.705Z,46.00
2023-04-26T22:33:42.191Z,46.00
2023-04-26T22:36:08.691Z,45.90
2023-04-26T22:38:35.159Z,46.00
2023-04-26T22:41:01.669Z,45.90
2023-04-26T22:43:28.136Z,46.00
2023-04-26T22:45:54.662Z,45.90
2023-04-26T22:48:21.156Z,46.10
2023-04-26T22:50:47.656Z,46.10
2023-04-26T22:53:14.122Z,46.10
2023-04-26T22:55:40.622Z,46.20
2023-04-26T22:58:07.090Z,46.20
2023-04-26T23:00:33.607Z,46.20
2023-04-26T23:03:00.207Z,46.00
2023-04-26T23:05:31.685Z,46.20
2023-04-26T23:07:58.179Z,46.10
2023-04-26T23:10:24.650Z,46.20
2023-04-26T23:12:51.125Z,46.20
2023-04-26T23:15:17.561Z,46.30
2023-04-26T23:17:44.129Z,46.30
2023-04-26T23:20:10.604Z,46.30
2023-04-26T23:22:37.076Z,46.30
2023-04-26T23:25:03.557Z,46.30
2023-04-26T23:27:30.043Z,46.20
2023-04-26T23:29:56.510Z,46.30
2023-04-26T23:32:22.968Z,46.20
2023-04-26T23:34:49.441Z,46.40
2023-04-26T23:37:15.917Z,46.30
2023-04-26T23:39:42.420Z,47.10
2023-04-26T23:42:08.915Z,46.40
2023-04-26T23:44:35.377Z,46.40
2023-04-26T23:47:01.895Z,46.40
2023-04-26T23:49:28.536Z,46.40
2023-04-26T23:51:55.068Z,46.20
2023-04-26T23:54:21.551Z,46.10
2023-04-26T23:56:48.071Z,46.30
2023-04-26T23:59:14.893Z,46.30
